Time;durP1;ratioP1;P1;durP2;ratioP2;P2;SDS_P1;SDS_P2;PMS_P1;PMS_P2;Temp;Humidity;BMP_temperature;BMP_pressure;BME280_temperature;BME280_humidity;BME280_pressure;Samples;Min_cycle;Max_cycle;Signal;HPM_P1;HPM_P2
2023/09/23 00:01:34;;;;;;;3.47;2.22;;;13.00;99.90;;;;;;5039254;28;20123;-88
2023/09/23 00:04:00;;;;;;;3.35;2.10;;;13.00;99.90;;;;;;5033496;28;20040;-87
2023/09/23 00:06:27;;;;;;;3.85;2.00;;;12.90;99.90;;;;;;5037935;28;20047;-87
2023/09/23 00:08:54;;;;;;;3.72;1.88;;;12.90;99.90;;;;;;5002460;28;20510;-88
2023/09/23 00:11:19;;;;;;;3.20;1.65;;;12.80;99.90;;;;;;5022609;28;20051;-88
2023/09/23 00:13:45;;;;;;;3.08;1.90;;;12.80;99.90;;;;;;5038864;28;20044;-88
2023/09/23 00:16:14;;;;;;;3.13;1.55;;;12.80;99.90;;;;;;5023112;28;20036;-87
2023/09/23 00:18:40;;;;;;;3.40;1.70;;;12.80;99.90;;;;;;5022293;28;20051;-86
2023/09/23 00:21:07;;;;;;;2.95;1.50;;;12.80;99.90;;;;;;5020304;28;20036;-86
2023/09/23 00:23:34;;;;;;;2.05;1.30;;;12.80;99.90;;;;;;5056551;28;20059;-87
2023/09/23 00:26:01;;;;;;;2.45;1.13;;;11.80;99.90;;;;;;5055030;28;20102;-87
2023/09/23 00:28:31;;;;;;;3.75;1.50;;;12.80;99.90;;;;;;5053999;28;20097;-86
2023/09/23 00:31:11;;;;;;;1.95;1.00;;;12.80;99.90;;;;;;5058284;28;20052;-86
2023/09/23 00:33:37;;;;;;;4.75;1.42;;;12.80;99.90;;;;;;5039077;28;20071;-87
2023/09/23 00:36:10;;;;;;;2.23;1.30;;;12.80;99.90;;;;;;5053817;28;20040;-86
2023/09/23 00:38:36;;;;;;;2.88;1.20;;;12.70;99.90;;;;;;5037467;28;20084;-86
2023/09/23 00:41:08;;;;;;;1.73;1.00;;;12.80;99.90;;;;;;5020253;28;20175;-85
2023/09/23 00:43:35;;;;;;;1.92;1.13;;;12.70;99.90;;;;;;5054169;28;20147;-87
2023/09/23 00:46:05;;;;;;;1.73;0.97;;;12.70;99.90;;;;;;5085046;28;20049;-87
2023/09/23 00:48:43;;;;;;;2.65;1.20;;;12.70;99.90;;;;;;5037494;28;20040;-87
2023/09/23 00:51:09;;;;;;;2.60;1.10;;;12.70;99.90;;;;;;5015268;28;20040;-87
2023/09/23 00:53:39;;;;;;;4.13;1.02;;;12.70;99.90;;;;;;5036300;28;20165;-88
2023/09/23 00:56:07;;;;;;;1.92;0.93;;;12.80;99.90;;;;;;5046090;28;20036;-87
2023/09/23 00:58:36;;;;;;;1.63;0.88;;;12.70;99.90;;;;;;5037597;28;20483;-88
2023/09/23 01:01:05;;;;;;;1.77;0.90;;;12.70;99.90;;;;;;5037411;28;20032;-87
2023/09/23 01:03:31;;;;;;;2.63;1.00;;;12.70;99.90;;;;;;5024289;28;20036;-87
2023/09/23 01:06:05;;;;;;;1.60;0.77;;;12.70;99.90;;;;;;5053905;28;20044;-87
2023/09/23 01:08:32;;;;;;;2.38;1.00;;;12.70;99.90;;;;;;5034089;28;20097;-86
2023/09/23 01:10:59;;;;;;;1.20;0.70;;;12.60;99.90;;;;;;5036385;28;20040;-88
2023/09/23 01:13:29;;;;;;;1.10;0.60;;;12.60;99.90;;;;;;5023681;28;20040;-87
2023/09/23 01:15:55;;;;;;;1.42;0.70;;;12.60;99.90;;;;;;5036479;28;20045;-87
2023/09/23 01:18:23;;;;;;;1.45;0.57;;;12.60;99.90;;;;;;5018858;28;20445;-89
2023/09/23 01:20:51;;;;;;;;;;;12.50;99.90;;;;;;5068958;28;20488;-89
2023/09/23 01:23:17;;;;;;;1.55;0.57;;;12.50;99.90;;;;;;5089145;28;19920;-90
2023/09/23 01:25:43;;;;;;;4.10;1.00;;;12.50;99.90;;;;;;5037431;28;20041;-90
2023/09/23 01:28:11;;;;;;;0.82;0.40;;;12.50;99.90;;;;;;5053816;28;20043;-90
2023/09/23 01:30:37;;;;;;;;;;;12.50;99.90;;;;;;5038923;28;20044;-90
2023/09/23 01:33:07;;;;;;;3.03;1.00;;;12.50;99.90;;;;;;5046292;28;19923;-92
2023/09/23 01:35:33;;;;;;;1.00;0.50;;;12.50;99.90;;;;;;5023869;28;20102;-90
2023/09/23 01:37:59;;;;;;;2.22;0.50;;;12.40;99.90;;;;;;5023002;28;20107;-91
2023/09/23 01:40:29;;;;;;;2.67;0.82;;;12.40;99.90;;;;;;5038533;28;20071;-92
2023/09/23 01:42:55;;;;;;;1.25;0.50;;;12.40;99.90;;;;;;5041168;28;20036;-90
2023/09/23 01:45:22;;;;;;;1.10;0.63;;;12.40;99.90;;;;;;5074422;28;20036;-89
2023/09/23 01:47:49;;;;;;;0.40;0.32;;;12.40;99.90;;;;;;5058180;28;20552;-91
2023/09/23 01:50:17;;;;;;;2.33;0.40;;;12.40;99.90;;;;;;5106811;28;20074;-91
2023/09/23 01:52:43;;;;;;;1.25;0.30;;;12.30;99.90;;;;;;5057481;28;20126;-89
2023/09/23 01:55:12;;;;;;;0.47;0.43;;;12.40;99.90;;;;;;5056761;28;20040;-92
2023/09/23 01:57:39;;;;;;;2.22;0.50;;;12.30;99.90;;;;;;5087256;28;20178;-93
2023/09/23 02:00:10;;;;;;;1.20;0.50;;;12.30;99.90;;;;;;5034800;28;20074;-89
2023/09/23 02:02:38;;;;;;;1.30;0.52;;;12.20;99.90;;;;;;5057285;28;20065;-90
2023/09/23 02:05:04;;;;;;;;;;;12.30;99.90;;;;;;5057382;28;20059;-90
2023/09/23 02:07:30;;;;;;;1.85;0.45;;;12.20;99.90;;;;;;5065457;28;20485;-91
2023/09/23 02:09:56;;;;;;;1.40;0.40;;;12.30;99.90;;;;;;5054771;28;20165;-91
2023/09/23 02:12:23;;;;;;;0.85;0.40;;;12.20;99.90;;;;;;5057258;28;20517;-91
2023/09/23 02:14:49;;;;;;;2.58;0.50;;;12.20;99.90;;;;;;5053905;28;20998;-92
2023/09/23 02:17:15;;;;;;;1.08;0.40;;;12.30;99.90;;;;;;5040651;28;20079;-92
2023/09/23 02:19:42;;;;;;;1.52;0.50;;;11.20;99.90;;;;;;5037828;28;20368;-91
2023/09/23 02:22:08;;;;;;;2.30;0.50;;;12.20;99.90;;;;;;5038794;28;20047;-93
2023/09/23 02:24:36;;;;;;;1.45;0.68;;;12.10;99.90;;;;;;5056246;28;20040;-90
2023/09/23 02:27:06;;;;;;;2.17;0.60;;;12.10;99.90;;;;;;5070913;28;20446;-91
2023/09/23 02:29:33;;;;;;;4.00;0.60;;;12.10;99.90;;;;;;5097223;28;20044;-92
2023/09/23 02:32:00;;;;;;;2.13;0.80;;;12.20;99.90;;;;;;5054096;28;20490;-90
2023/09/23 02:34:28;;;;;;;1.33;0.52;;;12.10;99.90;;;;;;5055458;28;20086;-90
2023/09/23 02:36:54;;;;;;;0.77;0.47;;;12.10;99.90;;;;;;5090716;28;20405;-91
2023/09/23 02:39:20;;;;;;;2.17;0.60;;;12.00;99.90;;;;;;5041110;28;20097;-91
2023/09/23 02:41:47;;;;;;;0.88;0.60;;;12.10;99.90;;;;;;5055526;28;20052;-91
2023/09/23 02:44:18;;;;;;;1.95;0.80;;;12.10;99.90;;;;;;5055091;28;20036;-90
2023/09/23 02:46:48;;;;;;;2.30;0.90;;;12.10;99.90;;;;;;5056664;28;20491;-92
2023/09/23 02:49:14;;;;;;;2.55;1.20;;;12.00;99.90;;;;;;5055237;28;20036;-89
2023/09/23 02:51:43;;;;;;;2.35;1.35;;;12.00;99.90;;;;;;5104607;28;20040;-92
2023/09/23 02:54:11;;;;;;;2.85;1.80;;;12.00;99.90;;;;;;5080991;28;20058;-90
2023/09/23 02:56:37;;;;;;;2.85;1.90;;;12.00;99.90;;;;;;5055088;28;20048;-91
2023/09/23 02:59:13;;;;;;;3.50;1.92;;;11.90;99.90;;;;;;5056509;28;20048;-90
2023/09/23 03:01:48;;;;;;;3.85;2.50;;;11.90;99.90;;;;;;5041377;28;20039;-92
2023/09/23 03:04:17;;;;;;;4.13;2.60;;;11.90;99.90;;;;;;5035363;28;20043;-91
2023/09/23 03:06:49;;;;;;;4.55;2.70;;;11.90;99.90;;;;;;5039615;28;20040;-91
2023/09/23 03:09:19;;;;;;;4.15;2.60;;;12.00;99.90;;;;;;5073907;28;20051;-90
2023/09/23 03:11:53;;;;;;;3.78;2.42;;;12.00;99.90;;;;;;5060455;28;20115;-95
2023/09/23 03:14:22;;;;;;;4.95;2.80;;;11.90;99.90;;;;;;5057730;28;20124;-91
2023/09/23 03:16:53;;;;;;;4.90;3.30;;;11.90;99.90;;;;;;5071440;28;20539;-91
2023/09/23 03:19:27;;;;;;;5.43;3.20;;;11.90;99.90;;;;;;5058909;28;20032;-91
2023/09/23 03:21:57;;;;;;;3.60;2.80;;;12.00;99.90;;;;;;5043607;28;20097;-92
2023/09/23 03:24:28;;;;;;;4.50;3.10;;;11.90;99.90;;;;;;5060488;28;20040;-90
2023/09/23 03:26:58;;;;;;;5.15;3.53;;;11.90;99.90;;;;;;5060776;28;20036;-91
2023/09/23 03:29:28;;;;;;;6.50;3.42;;;12.00;99.90;;;;;;5063231;28;20036;-91
2023/09/23 03:31:55;;;;;;;5.35;3.58;;;11.90;99.90;;;;;;5076471;28;20036;-91
2023/09/23 03:34:21;;;;;;;;;;;11.90;99.90;;;;;;5063026;28;20142;-92
2023/09/23 03:36:53;;;;;;;4.63;3.28;;;11.90;99.90;;;;;;5060933;28;19916;-90
2023/09/23 03:39:19;;;;;;;4.65;3.58;;;11.80;99.90;;;;;;5046878;28;20036;-91
2023/09/23 03:41:46;;;;;;;5.18;3.60;;;11.80;99.90;;;;;;5079776;28;20110;-90
2023/09/23 03:44:16;;;;;;;6.05;4.07;;;11.80;99.90;;;;;;5073504;28;20044;-92
2023/09/23 03:46:50;;;;;;;4.93;3.88;;;11.90;99.90;;;;;;5074982;28;20031;-89
2023/09/23 03:49:17;;;;;;;4.97;4.18;;;11.90;99.90;;;;;;5058867;28;20047;-91
2023/09/23 03:51:44;;;;;;;4.55;3.88;;;11.80;99.90;;;;;;5063748;28;20044;-90
2023/09/23 03:54:11;;;;;;;5.65;4.03;;;11.80;99.90;;;;;;5074923;28;20047;-89
2023/09/23 03:56:40;;;;;;;6.95;3.70;;;11.80;99.90;;;;;;5060917;28;20521;-90
2023/09/23 03:59:06;;;;;;;4.50;3.92;;;11.80;99.90;;;;;;5054155;28;20516;-91
2023/09/23 04:01:36;;;;;;;6.68;4.15;;;11.80;99.90;;;;;;5063074;28;20115;-92
2023/09/23 04:04:03;;;;;;;6.63;4.22;;;11.70;99.90;;;;;;5043367;28;20115;-91
2023/09/23 04:06:30;;;;;;;7.70;4.47;;;11.70;99.90;;;;;;5113458;27;20040;-91
2023/09/23 04:08:58;;;;;;;6.28;4.22;;;11.70;99.90;;;;;;5059860;28;20119;-90
2023/09/23 04:11:27;;;;;;;5.30;4.53;;;11.80;99.90;;;;;;5046055;28;20503;-89
2023/09/23 04:13:54;;;;;;;9.40;4.95;;;11.70;99.90;;;;;;5043273;28;20089;-89
2023/09/23 04:16:19;;;;;;;6.00;4.18;;;11.70;99.90;;;;;;5065063;28;20044;-90
2023/09/23 04:18:46;;;;;;;6.90;4.93;;;11.70;99.90;;;;;;5043242;28;20109;-89
2023/09/23 04:21:13;;;;;;;7.50;5.10;;;11.60;99.90;;;;;;5060502;28;20036;-92
2023/09/23 04:23:39;;;;;;;6.68;5.15;;;11.60;99.90;;;;;;5058954;28;20120;-91
2023/09/23 04:26:05;;;;;;;7.82;5.18;;;11.60;99.90;;;;;;5059505;28;20153;-91
2023/09/23 04:28:31;;;;;;;8.32;5.50;;;11.70;99.90;;;;;;5037983;28;20044;-90
2023/09/23 04:30:57;;;;;;;6.35;4.97;;;11.60;99.90;;;;;;5062085;28;20483;-92
2023/09/23 04:33:27;;;;;;;6.00;4.82;;;11.70;99.90;;;;;;5064499;28;20105;-89
2023/09/23 04:35:58;;;;;;;7.80;4.50;;;11.00;99.90;;;;;;5042005;28;20047;-91
2023/09/23 04:38:25;;;;;;;6.07;4.75;;;11.60;99.90;;;;;;5084962;28;20043;-89
2023/09/23 04:40:51;;;;;;;6.00;4.55;;;11.70;99.90;;;;;;5058643;28;20549;-90
2023/09/23 04:43:19;;;;;;;7.22;4.88;;;11.70;99.90;;;;;;5059132;28;20082;-88
2023/09/23 04:45:45;;;;;;;6.72;4.38;;;11.80;99.90;;;;;;5059312;28;20039;-90
2023/09/23 04:48:11;;;;;;;5.55;4.43;;;12.10;99.90;;;;;;5057319;28;20040;-87
2023/09/23 04:50:39;;;;;;;5.47;4.47;;;11.70;99.90;;;;;;5036958;28;20040;-91
2023/09/23 04:53:06;;;;;;;7.05;4.50;;;11.80;99.90;;;;;;5059684;28;20683;-88
2023/09/23 04:55:32;;;;;;;6.90;4.35;;;11.70;99.90;;;;;;5047689;28;20119;-89
2023/09/23 04:57:58;;;;;;;6.03;4.15;;;11.70;99.90;;;;;;5057772;28;20623;-90
2023/09/23 05:00:26;;;;;;;5.57;4.10;;;11.70;99.90;;;;;;5057173;28;20127;-90
2023/09/23 05:02:52;;;;;;;5.53;4.80;;;11.70;99.90;;;;;;5041441;28;20352;-89
2023/09/23 05:05:18;;;;;;;5.55;4.50;;;11.70;99.90;;;;;;5046204;28;20120;-89
2023/09/23 05:07:45;;;;;;;6.65;4.53;;;11.60;99.90;;;;;;5095539;28;20032;-89
2023/09/23 05:10:14;;;;;;;5.22;4.53;;;11.60;99.90;;;;;;5062546;28;20549;-88
2023/09/23 05:12:41;;;;;;;5.78;4.78;;;11.70;99.90;;;;;;5057851;28;20447;-90
2023/09/23 05:15:10;;;;;;;5.22;4.38;;;11.60;99.90;;;;;;5057935;28;20131;-89
2023/09/23 05:17:37;;;;;;;5.38;4.43;;;11.60;99.90;;;;;;5041792;28;20040;-89
2023/09/23 05:20:16;;;;;;;6.32;4.40;;;11.60;99.90;;;;;;5037584;28;20048;-90
2023/09/23 05:22:42;;;;;;;5.28;4.22;;;11.60;99.90;;;;;;5039146;28;20070;-89
2023/09/23 05:25:11;;;;;;;7.38;4.65;;;11.50;99.90;;;;;;5041098;28;20122;-88
2023/09/23 05:27:40;;;;;;;5.40;3.97;;;11.60;99.90;;;;;;5041935;28;20040;-88
2023/09/23 05:30:12;;;;;;;5.25;4.25;;;11.60;99.90;;;;;;5054264;28;20047;-91
2023/09/23 05:32:38;;;;;;;5.85;4.47;;;11.50;99.90;;;;;;5087063;28;20409;-89
2023/09/23 05:35:09;;;;;;;5.63;4.47;;;11.60;99.90;;;;;;5071124;28;20070;-87
2023/09/23 05:37:47;;;;;;;4.93;4.35;;;11.60;99.90;;;;;;5053092;28;20063;-89
2023/09/23 05:42:47;;;;;;;5.60;4.03;;;11.50;99.90;;;;;;5053557;28;20079;-88
2023/09/23 05:45:14;;;;;;;7.47;4.45;;;11.50;99.90;;;;;;5074122;28;20533;-92
2023/09/23 05:47:47;;;;;;;5.55;4.35;;;11.50;99.90;;;;;;5044632;28;20040;-89
2023/09/23 05:50:16;;;;;;;7.95;4.93;;;11.50;99.90;;;;;;5071386;28;20451;-89
2023/09/23 05:52:42;;;;;;;7.05;4.45;;;11.50;99.90;;;;;;5055713;28;21899;-88
2023/09/23 05:55:08;;;;;;;6.28;4.50;;;11.60;99.90;;;;;;5060094;28;20102;-90
2023/09/23 05:57:34;;;;;;;5.60;4.53;;;11.50;99.90;;;;;;5057668;28;20040;-89
2023/09/23 06:00:01;;;;;;;5.97;4.87;;;11.50;99.90;;;;;;5073205;28;20065;-90
2023/09/23 06:02:27;;;;;;;7.15;5.30;;;11.40;99.90;;;;;;5055546;28;20027;-88
2023/09/23 06:04:53;;;;;;;6.68;4.78;;;11.60;99.90;;;;;;5056981;28;20048;-90
2023/09/23 06:07:19;;;;;;;6.78;5.22;;;11.50;99.90;;;;;;5073165;28;20043;-88
2023/09/23 06:09:44;;;;;;;5.75;4.82;;;10.60;99.90;;;;;;5043351;28;20556;-87
2023/09/23 06:12:11;;;;;;;5.88;5.00;;;11.60;99.90;;;;;;5039599;28;20068;-87
2023/09/23 06:14:36;;;;;;;6.28;5.15;;;11.50;99.90;;;;;;5072388;28;20048;-89
2023/09/23 06:17:02;;;;;;;7.70;5.78;;;11.80;99.90;;;;;;5050801;28;20452;-87
2023/09/23 06:19:28;;;;;;;6.75;6.05;;;11.80;99.90;;;;;;5096642;28;20106;-87
2023/09/23 06:21:54;;;;;;;6.70;5.55;;;11.80;99.90;;;;;;5086268;28;20040;-88
2023/09/23 06:24:20;;;;;;;8.27;6.18;;;11.90;99.90;;;;;;5024275;28;20036;-87
2023/09/23 06:26:46;;;;;;;7.93;6.27;;;12.00;99.90;;;;;;5057359;28;20503;-86
2023/09/23 06:29:15;;;;;;;7.75;5.95;;;12.00;99.90;;;;;;5073857;28;20058;-89
2023/09/23 06:31:41;;;;;;;8.27;6.53;;;12.10;99.90;;;;;;5064427;28;20122;-88
2023/09/23 06:34:07;;;;;;;8.13;6.10;;;12.20;99.90;;;;;;5072766;28;20129;-88
2023/09/23 06:36:33;;;;;;;7.90;6.60;;;12.20;99.90;;;;;;5079032;28;20513;-88
2023/09/23 06:39:00;;;;;;;8.98;6.38;;;12.40;99.90;;;;;;5057320;28;20039;-89
2023/09/23 06:41:25;;;;;;;7.87;6.67;;;12.40;99.90;;;;;;5056115;28;20109;-88
2023/09/23 06:43:52;;;;;;;7.60;6.50;;;12.60;99.90;;;;;;5083570;28;20043;-86
2023/09/23 06:46:18;;;;;;;7.97;6.53;;;12.60;99.90;;;;;;5055380;28;20072;-86
2023/09/23 06:48:43;;;;;;;9.35;6.90;;;12.50;99.90;;;;;;5036856;28;20076;-88
2023/09/23 06:51:10;;;;;;;10.75;7.72;;;12.60;99.90;;;;;;5036785;28;20098;-88
2023/09/23 06:53:36;;;;;;;9.15;7.85;;;12.80;99.90;;;;;;5039854;28;20122;-91
2023/09/23 06:56:02;;;;;;;10.35;8.73;;;12.80;99.90;;;;;;5055585;28;20524;-87
2023/09/23 06:58:27;;;;;;;9.63;8.60;;;12.80;99.90;;;;;;5047493;28;20040;-87
2023/09/23 07:00:54;;;;;;;10.20;8.93;;;12.90;99.90;;;;;;5068542;28;20043;-89
2023/09/23 07:03:20;;;;;;;11.50;9.47;;;13.10;99.90;;;;;;5039104;28;20047;-90
2023/09/23 07:05:46;;;;;;;10.60;9.32;;;13.10;99.90;;;;;;5049521;28;20387;-87
2023/09/23 07:08:12;;;;;;;11.60;9.30;;;13.20;99.90;;;;;;5051378;28;20401;-88
2023/09/23 07:10:39;;;;;;;12.57;10.00;;;13.20;99.90;;;;;;5083958;28;20392;-87
2023/09/23 07:13:06;;;;;;;11.50;9.85;;;13.30;99.90;;;;;;5056291;28;20040;-86
2023/09/23 07:15:40;;;;;;;11.40;10.07;;;13.20;99.90;;;;;;5071682;28;20339;-87
2023/09/23 07:18:06;;;;;;;10.50;8.98;;;13.20;99.90;;;;;;5068667;28;20048;-87
2023/09/23 07:20:33;;;;;;;10.43;8.60;;;13.20;99.90;;;;;;5046139;28;20375;-89
2023/09/23 07:22:59;;;;;;;13.70;9.10;;;13.20;99.90;;;;;;5055074;28;20039;-87
2023/09/23 07:25:26;;;;;;;12.70;9.27;;;13.20;99.90;;;;;;5023240;28;20042;-89
2023/09/23 07:27:53;;;;;;;10.50;9.05;;;13.20;99.90;;;;;;5035289;28;20068;-88
2023/09/23 07:30:19;;;;;;;12.50;9.60;;;13.20;99.90;;;;;;5038370;28;20036;-88
2023/09/23 07:32:45;;;;;;;9.77;8.60;;;13.10;99.90;;;;;;5038368;28;20090;-87
2023/09/23 07:35:11;;;;;;;13.35;9.05;;;13.10;99.90;;;;;;5070006;28;20387;-88
2023/09/23 07:37:37;;;;;;;10.20;8.98;;;13.20;99.90;;;;;;5058828;28;20050;-87
2023/09/23 07:40:06;;;;;;;10.48;8.75;;;13.30;99.90;;;;;;5040540;28;20159;-87
2023/09/23 07:42:32;;;;;;;10.63;8.23;;;13.30;99.90;;;;;;5039101;28;20040;-89
2023/09/23 07:44:58;;;;;;;14.02;8.70;;;;;;;;;;5039786;28;20108;-87
2023/09/23 07:47:24;;;;;;;10.80;8.32;;;13.70;99.90;;;;;;5054544;28;20543;-89
2023/09/23 07:49:50;;;;;;;9.65;8.65;;;13.90;99.90;;;;;;5021817;28;20171;-87
2023/09/23 07:52:16;;;;;;;9.90;8.90;;;14.00;99.90;;;;;;5018253;28;20419;-89
2023/09/23 07:54:42;;;;;;;10.82;8.35;;;14.00;99.90;;;;;;5021219;28;20063;-88
2023/09/23 07:57:08;;;;;;;11.40;8.13;;;14.00;99.90;;;;;;5054515;28;20036;-89
2023/09/23 07:59:34;;;;;;;10.75;8.73;;;14.10;99.90;;;;;;5069106;28;20579;-88
2023/09/23 08:01:59;;;;;;;9.77;8.77;;;14.40;99.90;;;;;;5038128;28;20441;-94
2023/09/23 08:04:25;;;;;;;10.00;8.05;;;14.90;99.90;;;;;;5038250;28;20032;-91
2023/09/23 08:06:51;;;;;;;9.85;8.00;;;15.50;99.90;;;;;;5057162;28;20040;-89
2023/09/23 08:09:17;;;;;;;9.13;8.18;;;16.00;99.90;;;;;;5034536;28;20036;-92
2023/09/23 08:11:43;;;;;;;9.57;8.30;;;17.00;99.90;;;;;;5042959;28;20177;-92
2023/09/23 08:14:09;;;;;;;8.30;7.22;;;18.00;99.90;;;;;;5071287;28;20059;-93
2023/09/23 08:16:35;;;;;;;7.68;6.47;;;;;;;;;;5069766;28;20082;-92
2023/09/23 08:19:00;;;;;;;6.68;5.97;;;18.60;99.90;;;;;;5091725;28;20393;-91
2023/09/23 08:21:26;;;;;;;9.13;5.95;;;18.90;99.90;;;;;;5055367;28;20082;-90
2023/09/23 08:23:52;;;;;;;6.90;5.38;;;19.20;99.90;;;;;;5069176;28;20041;-90
2023/09/23 08:26:18;;;;;;;5.95;5.35;;;19.00;99.90;;;;;;5021043;28;20034;-91
2023/09/23 08:28:43;;;;;;;6.85;5.82;;;18.60;99.90;;;;;;5068974;28;20046;-90
2023/09/23 08:31:09;;;;;;;7.80;5.63;;;18.00;99.90;;;;;;5041620;28;20047;-93
2023/09/23 08:33:35;;;;;;;7.88;5.63;;;17.60;99.90;;;;;;5057636;28;20050;-91
2023/09/23 08:36:01;;;;;;;7.05;5.50;;;17.20;99.90;;;;;;5058919;28;20040;-93
2023/09/23 08:38:27;;;;;;;6.15;5.38;;;16.90;99.90;;;;;;5073579;28;20426;-90
2023/09/23 08:40:53;;;;;;;6.07;5.47;;;16.60;99.90;;;;;;5057171;28;20131;-90
2023/09/23 08:43:38;;;;;;;7.15;5.55;;;16.40;99.90;;;;;;5038059;28;20036;-89
2023/09/23 08:46:09;;;;;;;6.97;5.40;;;16.30;99.90;;;;;;5046158;28;20035;-90
2023/09/23 08:48:35;;;;;;;8.23;5.30;;;16.10;99.90;;;;;;5073884;28;20075;-89
2023/09/23 08:51:02;;;;;;;5.82;4.95;;;16.10;99.90;;;;;;5031277;28;20131;-91
2023/09/23 08:53:32;;;;;;;5.57;4.80;;;16.10;99.90;;;;;;5053427;28;20051;-90
2023/09/23 08:56:00;;;;;;;5.93;5.32;;;16.10;99.90;;;;;;5056741;28;20044;-91
2023/09/23 08:58:26;;;;;;;8.57;5.45;;;16.30;99.90;;;;;;5056597;28;20036;-89
2023/09/23 09:00:54;;;;;;;5.78;5.00;;;16.40;99.90;;;;;;5034221;28;20036;-92
2023/09/23 09:03:19;;;;;;;;;;;16.60;99.90;;;;;;5050424;28;20481;-89
2023/09/23 09:05:46;;;;;;;7.63;5.03;;;16.80;99.90;;;;;;5087020;28;19955;-90
2023/09/23 09:08:12;;;;;;;5.05;4.15;;;16.90;99.90;;;;;;5037125;28;20123;-86
2023/09/23 09:10:40;;;;;;;5.68;4.28;;;17.00;99.90;;;;;;5051118;28;20101;-89
2023/09/23 09:13:06;;;;;;;;;;;17.10;99.90;;;;;;5054478;28;20040;-90
2023/09/23 09:15:36;;;;;;;3.78;2.92;;;17.10;99.90;;;;;;5063569;28;19928;-89
2023/09/23 09:18:03;;;;;;;4.18;3.15;;;17.30;99.90;;;;;;5030055;28;20044;-90
2023/09/23 09:20:29;;;;;;;4.28;2.88;;;17.40;99.90;;;;;;5047371;28;20367;-88
2023/09/23 09:22:55;;;;;;;3.60;2.67;;;17.50;99.90;;;;;;5052646;28;20060;-90
2023/09/23 09:25:21;;;;;;;3.90;2.60;;;17.60;99.90;;;;;;5030152;28;20063;-91
2023/09/23 09:27:47;;;;;;;4.10;2.75;;;17.70;99.90;;;;;;5084267;28;20523;-88
2023/09/23 09:30:13;;;;;;;3.43;2.23;;;17.70;99.90;;;;;;5066419;28;20067;-89
2023/09/23 09:32:44;;;;;;;3.22;2.60;;;17.80;99.90;;;;;;5017897;28;20032;-88
2023/09/23 09:35:17;;;;;;;6.93;2.88;;;17.80;99.90;;;;;;5050561;28;20036;-91
2023/09/23 09:37:46;;;;;;;3.53;2.72;;;17.80;99.90;;;;;;5073965;28;20035;-90
2023/09/23 09:40:17;;;;;;;6.15;2.80;;;17.90;99.90;;;;;;5068903;28;20048;-88
2023/09/23 09:42:59;;;;;;;4.45;3.00;;;17.90;99.90;;;;;;5033892;28;20083;-90
2023/09/23 09:45:26;;;;;;;3.03;2.25;;;17.70;99.90;;;;;;5020987;28;20036;-90
2023/09/23 09:47:55;;;;;;;3.17;2.05;;;17.70;99.90;;;;;;5031350;28;20242;-91
2023/09/23 09:50:23;;;;;;;5.47;1.83;;;17.80;99.90;;;;;;5059184;28;20040;-87
2023/09/23 09:52:49;;;;;;;3.50;1.42;;;17.90;99.90;;;;;;5014957;28;20116;-86
2023/09/23 09:55:18;;;;;;;3.80;2.55;;;18.00;99.90;;;;;;5048662;28;20037;-86
2023/09/23 09:57:52;;;;;;;2.33;1.40;;;18.10;99.90;;;;;;5030115;28;20642;-92
2023/09/23 10:00:28;;;;;;;2.63;1.42;;;18.10;99.90;;;;;;5047549;28;20040;-92
2023/09/23 10:03:08;;;;;;;4.28;1.85;;;18.10;99.90;;;;;;5031895;28;20041;-92
2023/09/23 10:05:42;;;;;;;2.35;1.38;;;18.10;99.90;;;;;;5030830;28;20068;-86
2023/09/23 10:08:13;;;;;;;5.15;1.40;;;18.10;99.90;;;;;;5067025;28;20699;-90
2023/09/23 10:10:47;;;;;;;1.95;1.25;;;18.30;99.90;;;;;;5077797;28;20051;-90
2023/09/23 10:13:16;;;;;;;2.53;1.13;;;18.40;99.90;;;;;;5025294;28;20045;-90
2023/09/23 10:15:43;;;;;;;2.70;1.30;;;18.40;99.90;;;;;;5016052;28;20044;-90
2023/09/23 10:18:21;;;;;;;1.90;1.10;;;18.30;99.90;;;;;;5029132;28;20124;-90
2023/09/23 10:20:56;;;;;;;3.67;1.60;;;18.10;99.90;;;;;;5024035;28;20483;-90
2023/09/23 10:23:22;;;;;;;2.95;1.10;;;17.90;99.90;;;;;;5038094;28;20360;-92
2023/09/23 10:25:50;;;;;;;2.75;1.02;;;17.80;99.90;;;;;;5042276;28;20507;-92
2023/09/23 10:28:24;;;;;;;2.65;1.08;;;17.70;99.90;;;;;;5054329;28;20052;-89
2023/09/23 10:31:04;;;;;;;2.15;0.98;;;17.60;99.90;;;;;;5036757;28;20075;-91
2023/09/23 10:33:31;;;;;;;1.98;0.85;;;17.50;99.90;;;;;;5059428;28;20040;-89
2023/09/23 10:36:01;;;;;;;5.25;1.08;;;17.30;99.90;;;;;;5029811;28;20072;-87
2023/09/23 10:38:34;;;;;;;3.20;1.23;;;17.10;99.90;;;;;;5034249;28;20045;-84
2023/09/23 10:41:01;;;;;;;4.25;1.50;;;17.00;99.90;;;;;;5045895;28;20047;-84
2023/09/23 10:43:27;;;;;;;2.88;1.20;;;16.80;99.90;;;;;;5062820;28;20044;-84
2023/09/23 10:45:54;;;;;;;2.08;1.30;;;16.90;99.90;;;;;;5029144;28;20043;-85
2023/09/23 10:48:20;;;;;;;2.05;1.17;;;16.60;99.90;;;;;;5057550;28;20528;-83
2023/09/23 10:50:47;;;;;;;3.50;1.08;;;16.50;99.90;;;;;;5052125;28;20047;-84
2023/09/23 10:53:14;;;;;;;2.58;1.20;;;16.30;99.90;;;;;;5057001;28;20134;-84
2023/09/23 10:55:40;;;;;;;2.38;1.30;;;16.20;99.90;;;;;;5061322;28;20039;-85
2023/09/23 10:58:09;;;;;;;2.95;1.33;;;16.00;99.90;;;;;;5053331;28;20074;-83
2023/09/23 11:00:36;;;;;;;3.00;1.10;;;16.00;99.90;;;;;;5083228;28;20162;-85
2023/09/23 11:03:11;;;;;;;4.30;1.20;;;15.90;99.90;;;;;;5055060;28;20036;-83
2023/09/23 11:05:39;;;;;;;3.33;1.30;;;15.90;99.90;;;;;;5079243;28;20047;-84
2023/09/23 11:08:06;;;;;;;4.30;1.75;;;15.90;99.90;;;;;;5038892;28;20051;-84
2023/09/23 11:10:35;;;;;;;3.00;1.60;;;16.10;99.90;;;;;;5038100;28;20043;-83
2023/09/23 11:13:04;;;;;;;5.07;2.20;;;16.20;99.90;;;;;;5056882;28;20147;-86
2023/09/23 11:15:30;;;;;;;3.83;1.83;;;16.30;99.90;;;;;;5044219;28;20098;-83
2023/09/23 11:17:56;;;;;;;3.72;1.60;;;16.30;99.90;;;;;;5056228;28;20048;-84
2023/09/23 11:20:32;;;;;;;6.28;2.42;;;16.20;99.90;;;;;;5050893;28;20039;-87
2023/09/23 11:23:03;;;;;;;4.68;1.67;;;16.10;99.90;;;;;;5058794;28;20431;-85
2023/09/23 11:25:30;;;;;;;3.42;1.70;;;15.90;99.90;;;;;;5057708;28;20033;-86
2023/09/23 11:28:02;;;;;;;4.80;1.80;;;15.90;99.90;;;;;;5050311;28;20443;-86
2023/09/23 11:30:28;;;;;;;1.77;1.15;;;15.80;99.90;;;;;;5034516;28;20534;-88
2023/09/23 11:32:56;;;;;;;4.82;1.60;;;15.70;99.90;;;;;;5085295;28;20263;-86
2023/09/23 11:35:25;;;;;;;3.95;1.60;;;15.80;99.90;;;;;;5074326;28;20067;-87
2023/09/23 11:37:53;;;;;;;3.33;1.50;;;15.70;99.90;;;;;;5060187;28;20040;-87
2023/09/23 11:40:20;;;;;;;3.72;1.85;;;15.70;99.90;;;;;;5074409;28;20070;-89
2023/09/23 11:42:45;;;;;;;3.90;1.52;;;15.70;99.90;;;;;;5064178;28;20043;-87
2023/09/23 11:45:12;;;;;;;3.33;1.75;;;15.80;99.90;;;;;;5071565;28;20043;-87
2023/09/23 11:47:38;;;;;;;5.32;2.00;;;15.80;99.90;;;;;;5063211;28;20478;-87
2023/09/23 11:50:05;;;;;;;3.45;1.80;;;15.70;99.90;;;;;;5056668;28;20097;-87
2023/09/23 11:52:32;;;;;;;2.90;2.00;;;15.70;99.90;;;;;;5048172;28;20040;-88
2023/09/23 11:54:58;;;;;;;3.00;1.98;;;15.70;99.90;;;;;;5067583;28;20079;-87
2023/09/23 11:57:25;;;;;;;2.50;2.05;;;15.70;99.90;;;;;;5055230;28;20426;-87
2023/09/23 11:59:51;;;;;;;3.10;1.45;;;15.70;99.90;;;;;;5040489;28;20048;-89
2023/09/23 12:02:19;;;;;;;3.42;1.73;;;15.60;99.90;;;;;;5046075;28;20059;-89
2023/09/23 12:04:48;;;;;;;3.97;1.40;;;15.60;99.90;;;;;;5061035;28;20036;-89
2023/09/23 12:07:16;;;;;;;3.35;1.70;;;15.60;99.90;;;;;;5040342;28;20036;-89
2023/09/23 12:09:41;;;;;;;3.75;1.55;;;15.60;99.90;;;;;;5043746;28;20063;-89
2023/09/23 12:12:12;;;;;;;3.67;1.17;;;15.70;99.90;;;;;;5076243;28;20827;-90
2023/09/23 12:14:44;;;;;;;3.97;1.40;;;15.70;99.90;;;;;;5076233;28;20067;-87
2023/09/23 12:17:14;;;;;;;3.67;1.60;;;15.70;99.90;;;;;;5059772;28;20036;-89
2023/09/23 12:19:40;;;;;;;1.52;1.00;;;15.70;99.90;;;;;;5044774;28;20101;-90
2023/09/23 12:22:06;;;;;;;3.33;0.85;;;15.80;99.90;;;;;;5060169;28;20044;-88
2023/09/23 12:24:32;;;;;;;2.15;0.80;;;15.90;99.90;;;;;;5042700;28;20418;-89
2023/09/23 12:26:58;;;;;;;0.85;0.40;;;16.00;99.90;;;;;;5042994;28;20035;-87
2023/09/23 12:29:24;;;;;;;0.63;0.38;;;16.10;99.90;;;;;;5076679;28;20479;-87
2023/09/23 12:31:50;;;;;;;1.13;0.50;;;16.20;99.90;;;;;;5044605;28;20039;-87
2023/09/23 12:34:16;;;;;;;1.48;0.40;;;16.20;99.90;;;;;;5057825;28;20048;-88
2023/09/23 12:36:41;;;;;;;1.73;0.45;;;16.30;99.90;;;;;;5075853;28;20036;-89
2023/09/23 12:39:07;;;;;;;1.65;0.40;;;16.30;99.90;;;;;;5049508;28;20047;-88
2023/09/23 12:41:33;;;;;;;2.35;0.45;;;16.40;99.90;;;;;;5058780;28;20440;-88
2023/09/23 12:43:59;;;;;;;0.80;0.40;;;16.30;99.90;;;;;;5075360;28;20055;-88
2023/09/23 12:46:24;;;;;;;2.22;0.57;;;16.30;99.90;;;;;;5058279;28;20506;-89
2023/09/23 12:48:50;;;;;;;1.08;0.60;;;16.30;99.90;;;;;;5049267;28;20122;-86
2023/09/23 12:51:17;;;;;;;2.20;0.50;;;16.30;99.90;;;;;;5055199;28;20083;-87
2023/09/23 12:53:43;;;;;;;1.10;0.47;;;16.40;99.90;;;;;;5060545;28;20471;-88